createdAt,value
2022-08-04T00:00:10.238Z,101153.81
2022-08-04T00:02:46.107Z,101142.31
2022-08-04T00:05:49.492Z,101147.75
2022-08-04T00:08:19.175Z,101146.44
2022-08-04T00:10:50.355Z,101146.44
2022-08-04T00:13:22.590Z,101149.16
2022-08-04T00:15:52.973Z,101150.41
2022-08-04T00:18:25.725Z,101146.91
2022-08-04T00:21:04.365Z,101141.38
2022-08-04T00:24:12.336Z,101143.47
2022-08-04T00:26:21.229Z,101146.16
2022-08-04T00:28:48.854Z,101137.88
2022-08-04T00:31:16.784Z,101140.72
2022-08-04T00:33:46.411Z,101142.88
2022-08-04T00:36:13.818Z,101140.50
2022-08-04T00:38:45.151Z,101140.75
2022-08-04T00:41:56.687Z,101145.94
2022-08-04T00:45:02.334Z,101138.75
2022-08-04T00:48:06.156Z,101135.91
2022-08-04T00:50:57.092Z,101135.44
2022-08-04T00:53:36.428Z,101143.22
2022-08-04T00:56:37.219Z,101143.06
2022-08-04T00:59:31.440Z,101130.41
2022-08-04T01:02:28.860Z,101141.53
2022-08-04T01:04:55.558Z,101146.63
2022-08-04T01:07:56.198Z,101140.56
2022-08-04T01:10:22.865Z,101144.47
2022-08-04T01:13:15.378Z,101141.91
2022-08-04T01:15:59.746Z,101143.63
2022-08-04T01:18:36.058Z,101140.56
2022-08-04T01:21:17.644Z,101128.69
2022-08-04T01:24:22.672Z,101135.69
2022-08-04T01:27:08.583Z,101133.69
2022-08-04T01:29:46.942Z,101130.84
2022-08-04T01:32:21.086Z,101132.78
2022-08-04T01:34:56.842Z,101131.59
2022-08-04T01:37:50.141Z,101131.59
2022-08-04T01:40:17.113Z,101135.03
2022-08-04T01:42:45.791Z,101132.00
2022-08-04T01:45:14.743Z,101132.84
2022-08-04T01:47:50.697Z,101135.69
2022-08-04T01:50:17.849Z,101130.41
2022-08-04T01:52:50.732Z,101137.72
2022-08-04T01:55:18.980Z,101132.47
2022-08-04T01:57:48.688Z,101126.69
2022-08-04T02:00:18.648Z,101132.25
2022-08-04T02:02:46.833Z,101127.72
2022-08-04T02:05:18.347Z,101133.06
2022-08-04T02:08:05.616Z,101136.31
2022-08-04T02:10:44.307Z,101133.63
2022-08-04T02:13:48.637Z,101132.38
2022-08-04T02:16:52.443Z,101135.75
2022-08-04T02:19:35.417Z,101142.03
2022-08-04T02:22:17.424Z,101143.88
2022-08-04T02:24:49.376Z,101141.50
2022-08-04T02:27:19.593Z,101137.94
2022-08-04T02:29:56.839Z,101136.97
2022-08-04T02:32:29.708Z,101140.97
2022-08-04T02:35:15.588Z,101145.19
2022-08-04T02:37:53.566Z,101143.13
2022-08-04T02:40:22.147Z,101143.25
2022-08-04T02:42:50.478Z,101139.34
2022-08-04T02:45:20.235Z,101143.25
2022-08-04T02:48:29.567Z,101143.28
2022-08-04T02:50:39.319Z,101134.97
2022-08-04T02:53:10.536Z,101133.53
2022-08-04T02:55:38.439Z,101135.25
2022-08-04T02:58:06.104Z,101134.97
2022-08-04T03:00:33.195Z,101132.53
2022-08-04T03:02:59.829Z,101132.50
2022-08-04T03:06:00.947Z,101136.19
2022-08-04T03:08:57.902Z,101139.03
2022-08-04T03:11:51.398Z,101153.13
2022-08-04T03:14:21.010Z,101149.53
2022-08-04T03:17:12.274Z,101152.00
2022-08-04T03:20:29.007Z,101146.34
2022-08-04T03:23:20.309Z,101143.25
2022-08-04T03:26:24.233Z,101145.16
2022-08-04T03:29:09.415Z,101135.97
2022-08-04T03:31:57.390Z,101141.13
2022-08-04T03:34:33.108Z,101143.22
2022-08-04T03:37:29.576Z,101138.94
2022-08-04T03:40:08.935Z,101141.88
2022-08-04T03:43:02.288Z,101135.75
2022-08-04T03:45:45.708Z,101148.84
2022-08-04T03:48:18.184Z,101144.06
2022-08-04T03:51:35.232Z,101138.91
2022-08-04T03:54:27.015Z,101143.69
2022-08-04T03:57:21.301Z,101150.91
2022-08-04T04:00:06.550Z,101149.31
2022-08-04T04:03:28.867Z,101148.84
2022-08-04T04:06:10.237Z,101148.91
2022-08-04T04:09:16.065Z,101152.13
2022-08-04T04:12:20.702Z,101156.38
2022-08-04T04:15:35.935Z,101161.72
2022-08-04T04:18:14.964Z,101152.06
2022-08-04T04:20:50.613Z,101146.84
2022-08-04T04:23:54.628Z,101148.16
2022-08-04T04:26:40.399Z,101150.97
2022-08-04T04:29:23.059Z,101155.25
2022-08-04T04:31:57.833Z,101155.97
2022-08-04T04:35:11.282Z,101151.09
2022-08-04T04:37:56.054Z,101150.63
2022-08-04T04:40:54.240Z,101153.81
2022-08-04T04:43:52.787Z,101154.31
2022-08-04T04:46:54.835Z,101164.09
2022-08-04T04:49:39.552Z,101153.59
2022-08-04T04:52:09.310Z,101153.44
2022-08-04T04:54:46.046Z,101164.88
2022-08-04T04:57:21.152Z,101165.34
2022-08-04T05:00:10.532Z,101172.06
2022-08-04T05:02:49.291Z,101167.28
2022-08-04T05:05:34.723Z,101167.69
2022-08-04T05:08:43.724Z,101176.38
2022-08-04T05:11:35.306Z,101169.88
2022-08-04T05:14:34.997Z,101167.22
2022-08-04T05:17:22.208Z,101174.91
2022-08-04T05:20:03.494Z,101165.88
2022-08-04T05:22:37.595Z,101169.66
2022-08-04T05:25:30.273Z,101160.63
2022-08-04T05:28:07.185Z,101160.00
2022-08-04T05:30:48.798Z,101170.53
2022-08-04T05:33:29.277Z,101170.41
2022-08-04T05:36:20.333Z,101166.97
2022-08-04T05:38:51.216Z,101169.31
2022-08-04T05:41:19.122Z,101161.22
2022-08-04T05:43:46.932Z,101167.47
2022-08-04T05:46:15.581Z,101160.47
2022-08-04T05:48:43.992Z,101165.78
2022-08-04T05:51:11.467Z,101167.28
2022-08-04T05:53:39.312Z,101160.78
2022-08-04T05:56:06.982Z,101168.72
2022-08-04T05:58:35.866Z,101162.78
2022-08-04T06:01:05.016Z,101167.47
2022-08-04T06:03:33.662Z,101159.78
2022-08-04T06:06:01.598Z,101163.59
2022-08-04T06:08:29.971Z,101164.63
2022-08-04T06:10:59.310Z,101159.44
2022-08-04T06:13:49.729Z,101161.34
2022-08-04T06:16:29.877Z,101163.31
2022-08-04T06:20:03.025Z,101175.03
2022-08-04T06:21:51.112Z,101168.31
2022-08-04T06:24:22.437Z,101173.38
2022-08-04T06:26:51.474Z,101185.09
2022-08-04T06:29:29.482Z,101178.16
2022-08-04T06:32:28.672Z,101176.06
2022-08-04T06:34:49.161Z,101177.59
2022-08-04T06:37:24.166Z,101171.16
2022-08-04T06:40:29.822Z,101173.41
2022-08-04T06:42:53.773Z,101168.59
2022-08-04T06:45:21.447Z,101170.22
2022-08-04T06:47:49.062Z,101175.63
2022-08-04T06:51:24.918Z,101167.25
2022-08-04T06:53:04.190Z,101178.38
2022-08-04T06:55:33.342Z,101177.13
2022-08-04T06:58:04.409Z,101172.84
2022-08-04T07:00:34.213Z,101175.69
2022-08-04T07:03:02.429Z,101178.25
2022-08-04T07:05:29.848Z,101175.09
2022-08-04T07:07:58.734Z,101177.53
2022-08-04T07:10:28.170Z,101178.84
2022-08-04T07:12:59.699Z,101174.63
2022-08-04T07:15:27.755Z,101167.75
2022-08-04T07:17:56.991Z,101170.84
2022-08-04T07:20:35.021Z,101167.91
2022-08-04T07:23:04.398Z,101170.31
2022-08-04T07:26:00.705Z,101171.47
2022-08-04T07:28:18.209Z,101172.31
2022-08-04T07:30:47.398Z,101167.47
2022-08-04T07:33:25.564Z,101164.06
2022-08-04T07:36:05.399Z,101166.88
2022-08-04T07:38:37.923Z,101164.03
2022-08-04T07:41:36.519Z,101166.28
2022-08-04T07:44:04.285Z,101160.44
2022-08-04T07:46:31.641Z,101166.72
2022-08-04T07:49:01.083Z,101173.16
2022-08-04T07:51:30.594Z,101169.72
2022-08-04T07:53:58.598Z,101156.34
2022-08-04T07:56:27.085Z,101155.34
2022-08-04T07:58:54.509Z,101151.75
2022-08-04T08:01:21.966Z,101148.31
2022-08-04T08:03:49.943Z,101147.59
2022-08-04T08:06:32.745Z,101143.88
2022-08-04T08:09:02.204Z,101142.44
2022-08-04T08:12:35.823Z,101149.13
2022-08-04T08:14:33.431Z,101140.06
2022-08-04T08:17:02.620Z,101142.56
2022-08-04T08:19:34.853Z,101135.75
2022-08-04T08:22:02.373Z,101139.66
2022-08-04T08:24:30.945Z,101142.78
2022-08-04T08:26:58.655Z,101131.03
2022-08-04T08:29:26.624Z,101141.72
2022-08-04T08:31:55.334Z,101137.50
2022-08-04T08:34:28.241Z,101138.34
2022-08-04T08:37:17.158Z,101137.75
2022-08-04T08:40:07.328Z,101138.88
2022-08-04T08:44:05.152Z,101133.97
2022-08-04T08:46:38.737Z,101133.16
2022-08-04T08:50:02.407Z,101134.72
2022-08-04T08:52:55.274Z,101136.41
2022-08-04T08:55:28.275Z,101132.63
2022-08-04T08:58:16.724Z,101143.44
2022-08-04T09:01:07.413Z,101137.56
2022-08-04T09:03:58.651Z,101137.44
2022-08-04T09:06:42.858Z,101137.38
2022-08-04T09:09:24.527Z,101135.03
2022-08-04T09:12:32.735Z,101134.88
2022-08-04T09:15:05.422Z,101132.31
2022-08-04T09:17:52.241Z,101131.13
2022-08-04T09:20:31.075Z,101134.63
2022-08-04T09:23:03.935Z,101127.53
2022-08-04T09:25:46.468Z,101130.00
2022-08-04T09:28:53.169Z,101134.50
2022-08-04T09:31:21.153Z,101134.00
2022-08-04T09:34:01.096Z,101133.13
2022-08-04T09:36:29.475Z,101130.50
2022-08-04T09:39:12.285Z,101123.84
2022-08-04T09:41:56.626Z,101120.44
2022-08-04T09:44:57.454Z,101119.19
2022-08-04T09:47:39.756Z,101115.78
2022-08-04T09:50:37.645Z,101112.84
2022-08-04T09:53:27.310Z,101115.00
2022-08-04T09:56:03.457Z,101113.75
2022-08-04T09:58:46.554Z,101116.31
2022-08-04T10:01:23.917Z,101112.75
2022-08-04T10:03:59.150Z,101113.38
2022-08-04T10:06:48.159Z,101100.25
2022-08-04T10:09:28.686Z,101101.56
2022-08-04T10:12:21.249Z,101090.78
2022-08-04T10:14:47.920Z,101102.50
2022-08-04T10:17:26.717Z,101083.84
2022-08-04T10:20:44.540Z,101095.63
2022-08-04T10:23:55.852Z,101092.50
2022-08-04T10:26:33.399Z,101087.34
2022-08-04T10:29:02.833Z,101089.91
2022-08-04T10:31:35.395Z,101078.59
2022-08-04T10:34:12.340Z,101089.31
2022-08-04T10:36:48.861Z,101078.28
2022-08-04T10:39:43.337Z,101085.38
2022-08-04T10:42:20.640Z,101072.25
2022-08-04T10:45:06.204Z,101076.88
2022-08-04T10:47:38.205Z,101078.84
2022-08-04T10:50:08.578Z,101077.59
2022-08-04T10:52:50.403Z,101063.84
2022-08-04T10:55:21.533Z,101068.31
2022-08-04T10:57:54.968Z,101059.09
2022-08-04T11:00:26.849Z,101066.06
2022-08-04T11:03:11.042Z,101076.88
2022-08-04T11:05:54.167Z,101067.13
2022-08-04T11:08:26.317Z,101056.03
2022-08-04T11:11:00.921Z,101072.72
2022-08-04T11:13:38.542Z,101065.63
2022-08-04T11:16:13.864Z,101055.63
2022-08-04T11:18:49.795Z,101051.91
2022-08-04T11:21:21.891Z,101044.66
2022-08-04T11:24:03.205Z,101049.25
2022-08-04T11:26:44.336Z,101049.34
2022-08-04T11:29:22.188Z,101043.66
2022-08-04T11:31:51.883Z,101047.41
2022-08-04T11:34:24.615Z,101045.56
2022-08-04T11:37:02.994Z,101041.59
2022-08-04T11:39:35.957Z,101038.84
2022-08-04T11:42:26.240Z,101043.06
2022-08-04T11:45:00.653Z,101034.59
2022-08-04T11:47:45.628Z,101027.31
2022-08-04T11:50:20.413Z,101029.53
2022-08-04T11:52:48.399Z,101029.34
2022-08-04T11:55:19.458Z,101026.75
2022-08-04T11:57:46.289Z,101027.72
2022-08-04T12:00:23.000Z,101028.16
2022-08-04T12:03:01.916Z,101026.66
2022-08-04T12:05:36.504Z,101026.75
2022-08-04T12:08:22.594Z,101022.84
2022-08-04T12:11:26.914Z,101020.09
2022-08-04T12:14:09.797Z,101020.22
2022-08-04T12:16:45.469Z,101017.16
2022-08-04T12:19:33.912Z,101011.81
2022-08-04T12:22:18.723Z,101007.72
2022-08-04T12:25:13.189Z,101003.16
2022-08-04T12:28:03.130Z,101005.28
2022-08-04T12:30:58.402Z,100999.16
2022-08-04T12:34:02.917Z,101004.31
2022-08-04T12:36:19.103Z,101001.72
2022-08-04T12:39:10.439Z,100996.50
2022-08-04T12:41:43.210Z,101005.66
2022-08-04T12:44:33.468Z,100990.28
2022-08-04T12:47:26.718Z,100983.66
2022-08-04T12:50:00.415Z,100991.66
2022-08-04T12:55:20.387Z,100994.75
2022-08-04T12:57:49.668Z,100989.25
2022-08-04T13:00:38.259Z,100988.97
2022-08-04T13:03:18.110Z,100984.56
2022-08-04T13:05:45.777Z,100981.88
2022-08-04T13:08:15.449Z,100991.59
2022-08-04T13:10:48.089Z,100984.88
2022-08-04T13:13:21.852Z,100978.84
2022-08-04T13:15:57.852Z,100979.44
2022-08-04T13:18:30.144Z,100974.44
2022-08-04T13:21:20.227Z,100984.31
2022-08-04T13:24:09.433Z,100983.63
2022-08-04T13:26:54.547Z,100972.31
2022-08-04T13:29:58.039Z,100967.22
2022-08-04T13:32:16.710Z,100968.56
2022-08-04T13:34:49.541Z,100960.88
2022-08-04T13:37:25.142Z,100955.56
2022-08-04T13:39:55.217Z,100945.91
2022-08-04T13:42:24.242Z,100945.69
2022-08-04T13:44:58.111Z,100937.72
2022-08-04T13:47:34.907Z,100942.81
2022-08-04T13:50:20.594Z,100936.00
2022-08-04T13:52:50.838Z,100933.50
2022-08-04T13:55:28.333Z,100934.53
2022-08-04T13:58:19.808Z,100925.00
2022-08-04T14:01:20.675Z,100939.63
2022-08-04T14:04:12.251Z,100933.91
2022-08-04T14:06:56.243Z,100932.38
2022-08-04T14:09:35.063Z,100930.66
2022-08-04T14:12:45.382Z,100922.59
2022-08-04T14:15:09.250Z,100933.31
2022-08-04T14:17:35.990Z,100921.59
2022-08-04T14:20:04.486Z,100914.63
2022-08-04T14:22:34.799Z,100928.66
2022-08-04T14:25:15.799Z,100918.34
2022-08-04T14:27:57.754Z,100910.78
2022-08-04T14:30:27.328Z,100912.38
2022-08-04T14:34:04.126Z,100912.78
2022-08-04T14:36:04.125Z,100909.25
2022-08-04T14:38:53.680Z,100903.28
2022-08-04T14:41:44.423Z,100902.16
2022-08-04T14:44:11.072Z,100908.41
2022-08-04T14:46:52.288Z,100907.13
2022-08-04T14:49:19.298Z,100906.25
2022-08-04T14:51:56.964Z,100899.75
2022-08-04T14:54:31.779Z,100911.72
2022-08-04T14:57:02.705Z,100905.22
2022-08-04T14:59:41.034Z,100907.66
2022-08-04T15:02:29.574Z,100902.78
2022-08-04T15:04:57.707Z,100894.34
2022-08-04T15:07:24.940Z,100899.34
2022-08-04T15:09:51.812Z,100896.00
2022-08-04T15:12:18.755Z,100889.94
2022-08-04T15:14:45.543Z,100895.44
2022-08-04T15:17:30.072Z,100899.59
2022-08-04T15:19:57.465Z,100891.34
2022-08-04T15:22:24.606Z,100894.84
2022-08-04T15:24:52.078Z,100888.19
2022-08-04T15:27:24.290Z,100892.34
2022-08-04T15:30:00.705Z,100898.13
2022-08-04T15:32:33.185Z,100885.63
2022-08-04T15:35:06.873Z,100881.78
2022-08-04T15:37:33.470Z,100879.88
2022-08-04T15:40:08.989Z,100873.78
2022-08-04T15:43:13.374Z,100882.19
2022-08-04T15:46:33.021Z,100870.28
2022-08-04T15:48:41.896Z,100877.47
2022-08-04T15:51:14.139Z,100870.59
2022-08-04T15:54:03.483Z,100873.06
2022-08-04T15:56:28.049Z,100865.47
2022-08-04T15:58:57.149Z,100866.88
2022-08-04T16:01:24.434Z,100858.06
2022-08-04T16:04:01.229Z,100859.34
2022-08-04T16:06:29.724Z,100870.88
2022-08-04T16:09:04.997Z,100857.22
2022-08-04T16:11:33.332Z,100867.50
2022-08-04T16:14:02.840Z,100862.81
2022-08-04T16:16:29.521Z,100857.84
2022-08-04T16:19:05.435Z,100860.41
2022-08-04T16:21:33.952Z,100856.53
2022-08-04T16:24:10.297Z,100858.38
2022-08-04T16:26:37.012Z,100855.69
2022-08-04T16:29:24.681Z,100858.44
2022-08-04T16:32:13.277Z,100861.66
2022-08-04T16:35:20.224Z,100866.25
2022-08-04T16:37:46.980Z,100848.56
2022-08-04T16:40:39.539Z,100868.44
2022-08-04T16:43:13.902Z,100859.63
2022-08-04T16:45:59.037Z,100864.81
2022-08-04T16:48:37.615Z,100872.00
2022-08-04T16:51:14.475Z,100870.00
2022-08-04T16:53:58.713Z,100872.34
2022-08-04T16:56:34.566Z,100860.75
2022-08-04T16:59:12.625Z,100861.28
2022-08-04T17:01:55.275Z,100857.50
2022-08-04T17:04:29.617Z,100857.34
2022-08-04T17:07:01.367Z,100855.34
2022-08-04T17:09:28.967Z,100859.09
2022-08-04T17:11:57.155Z,100862.13
2022-08-04T17:14:27.401Z,100865.22
2022-08-04T17:16:58.304Z,100858.03
2022-08-04T17:19:26.407Z,100861.63
2022-08-04T17:22:02.237Z,100867.28
2022-08-04T17:24:30.074Z,100865.47
2022-08-04T17:26:58.085Z,100872.16
2022-08-04T17:29:43.176Z,100866.19
2022-08-04T17:32:14.931Z,100872.44
2022-08-04T17:34:41.814Z,100865.66
2022-08-04T17:37:38.111Z,100871.59
2022-08-04T17:40:14.136Z,100873.34
2022-08-04T17:42:41.397Z,100867.72
2022-08-04T17:45:41.416Z,100877.00
2022-08-04T17:47:56.048Z,100880.53
2022-08-04T17:50:28.726Z,100882.09
2022-08-04T17:53:11.815Z,100883.81
2022-08-04T17:55:42.361Z,100887.44
2022-08-04T17:58:21.397Z,100879.78
2022-08-04T18:03:51.838Z,100883.56
2022-08-04T18:06:21.877Z,100883.56
2022-08-04T18:08:57.329Z,100888.31
2022-08-04T18:11:34.823Z,100896.28
2022-08-04T18:14:10.373Z,100900.72
2022-08-04T18:16:45.280Z,100890.66
2022-08-04T18:19:14.763Z,100894.91
2022-08-04T18:21:46.971Z,100890.84
2022-08-04T18:24:34.529Z,100890.19
2022-08-04T18:27:16.613Z,100895.94
2022-08-04T18:29:50.232Z,100896.81
2022-08-04T18:32:32.949Z,100892.91
2022-08-04T18:35:05.765Z,100894.25
2022-08-04T18:38:06.782Z,100896.28
2022-08-04T18:40:30.126Z,100897.41
2022-08-04T18:43:02.208Z,100903.91
2022-08-04T18:45:34.554Z,100897.16
2022-08-04T18:48:04.148Z,100903.09
2022-08-04T18:51:11.238Z,100908.84
2022-08-04T18:53:35.296Z,100910.47
2022-08-04T18:56:03.286Z,100910.19
2022-08-04T18:58:29.988Z,100907.47
2022-08-04T19:01:00.465Z,100919.66
2022-08-04T19:06:16.048Z,100914.63
2022-08-04T19:08:45.284Z,100903.69
2022-08-04T19:11:37.447Z,100923.38
2022-08-04T19:14:02.524Z,100923.75
2022-08-04T19:16:30.843Z,100926.75
2022-08-04T19:19:03.420Z,100923.56
2022-08-04T19:22:01.378Z,100926.25
2022-08-04T19:24:32.794Z,100934.41
2022-08-04T19:27:07.383Z,100937.38
2022-08-04T19:29:37.186Z,100933.97
2022-08-04T19:32:14.853Z,100943.44
2022-08-04T19:34:46.291Z,100950.59
2022-08-04T19:37:56.339Z,100952.41
2022-08-04T19:40:02.425Z,100946.34
2022-08-04T19:42:31.305Z,100957.66
2022-08-04T19:44:58.043Z,100961.50
2022-08-04T19:48:12.342Z,100963.53
2022-08-04T19:50:13.957Z,100955.97
2022-08-04T19:52:40.899Z,100965.44
2022-08-04T19:55:18.874Z,100970.34
2022-08-04T19:57:49.678Z,100964.28
2022-08-04T20:00:33.450Z,100966.00
2022-08-04T20:05:55.821Z,100971.16
2022-08-04T20:08:24.339Z,100974.53
2022-08-04T20:10:52.351Z,100977.00
2022-08-04T20:13:21.369Z,100977.44
2022-08-04T20:15:55.527Z,100980.34
2022-08-04T20:18:35.797Z,100982.22
2022-08-04T20:21:23.876Z,100980.69
2022-08-04T20:23:51.323Z,100991.75
2022-08-04T20:26:18.215Z,100980.28
2022-08-04T20:28:45.798Z,100982.00
2022-08-04T20:31:18.428Z,100974.97
2022-08-04T20:33:53.844Z,100975.50
2022-08-04T20:36:21.696Z,100978.28
2022-08-04T20:38:53.041Z,100980.69
2022-08-04T20:41:20.854Z,100973.72
2022-08-04T20:43:50.064Z,100982.31
2022-08-04T20:46:29.031Z,100976.97
2022-08-04T20:48:57.357Z,100979.78
2022-08-04T20:51:32.094Z,100979.31
2022-08-04T20:54:02.092Z,100976.28
2022-08-04T20:56:31.393Z,100980.16
2022-08-04T20:59:00.131Z,100981.84
2022-08-04T21:01:30.145Z,100981.53
2022-08-04T21:04:27.194Z,100984.75
2022-08-04T21:06:57.410Z,100978.13
2022-08-04T21:09:26.472Z,100982.16
2022-08-04T21:12:04.951Z,100990.53
2022-08-04T21:14:31.711Z,100987.66
2022-08-04T21:16:59.353Z,100982.31
2022-08-04T21:19:27.483Z,100980.16
2022-08-04T21:21:54.868Z,100981.31
2022-08-04T21:24:25.943Z,100979.16
2022-08-04T21:26:56.577Z,100979.31
2022-08-04T21:29:34.905Z,100981.91
2022-08-04T21:32:05.931Z,100988.63
2022-08-04T21:34:38.461Z,100982.28
2022-08-04T21:37:09.361Z,100981.91
2022-08-04T21:39:50.177Z,100985.16
2022-08-04T21:42:29.737Z,100982.84
2022-08-04T21:45:05.188Z,100984.16
2022-08-04T21:47:45.717Z,100987.03
2022-08-04T21:50:13.012Z,100987.78
2022-08-04T21:52:46.299Z,100985.31
2022-08-04T21:55:12.977Z,100983.47
2022-08-04T21:57:42.607Z,100982.22
2022-08-04T22:00:10.825Z,100984.56
2022-08-04T22:02:45.456Z,100987.06
2022-08-04T22:05:15.868Z,100987.69
2022-08-04T22:10:32.571Z,100990.19
2022-08-04T22:13:06.686Z,100983.47
2022-08-04T22:16:04.876Z,100985.28
2022-08-04T22:18:24.365Z,100980.44
2022-08-04T22:20:53.959Z,100987.25
2022-08-04T22:23:24.279Z,100987.47
2022-08-04T22:25:53.537Z,100979.22
2022-08-04T22:28:25.522Z,100983.97
2022-08-04T22:30:56.820Z,100989.66
2022-08-04T22:33:23.726Z,100983.78
2022-08-04T22:36:11.967Z,100981.63
2022-08-04T22:38:48.874Z,100984.59
2022-08-04T22:41:21.569Z,100978.63
2022-08-04T22:44:00.874Z,100976.81
2022-08-04T22:46:30.235Z,100982.84
2022-08-04T22:48:57.390Z,100976.41
2022-08-04T22:51:48.311Z,100976.72
2022-08-04T22:54:18.838Z,100980.13
2022-08-04T22:56:46.008Z,100976.56
2022-08-04T22:59:12.899Z,100983.53
2022-08-04T23:01:58.875Z,100980.38
2022-08-04T23:04:27.067Z,100978.63
2022-08-04T23:06:54.819Z,100978.63
2022-08-04T23:09:22.237Z,100987.66
2022-08-04T23:12:25.102Z,100979.94
2022-08-04T23:14:53.250Z,100989.47
2022-08-04T23:17:21.848Z,100983.94
2022-08-04T23:19:57.458Z,100983.25
2022-08-04T23:22:41.320Z,100983.03
2022-08-04T23:25:16.358Z,100985.31
2022-08-04T23:27:51.717Z,100979.94
2022-08-04T23:30:24.618Z,100977.38
2022-08-04T23:32:56.584Z,100987.66
2022-08-04T23:35:23.995Z,100986.94
2022-08-04T23:37:57.919Z,100989.94
2022-08-04T23:40:33.110Z,100990.53
2022-08-04T23:43:17.512Z,100992.81
2022-08-04T23:46:05.151Z,100989.72
2022-08-04T23:48:35.986Z,100991.72
2022-08-04T23:51:15.576Z,100992.00
2022-08-04T23:54:01.552Z,100989.13
2022-08-04T23:56:29.861Z,100985.56
2022-08-04T23:58:56.900Z,100987.75
